Time;durP1;ratioP1;P1;durP2;ratioP2;P2;SDS_P1;SDS_P2;PMS_P1;PMS_P2;Temp;Humidity;BMP_temperature;BMP_pressure;BME280_temperature;BME280_humidity;BME280_pressure;Samples;Min_cycle;Max_cycle;Signal;HPM_P1;HPM_P2
2022/07/29 00:01:47;;;;;;;;;;;27.60;41.20;;;;;;4999722;28;19940;-69
2022/07/29 00:04:13;;;;;;;;;;;27.60;41.30;;;;;;5000957;28;19917;-69
2022/07/29 00:06:39;;;;;;;;;;;27.60;41.30;;;;;;5005352;28;20491;-67
2022/07/29 00:09:05;;;;;;;;;;;27.50;41.30;;;;;;5000509;28;19922;-67
2022/07/29 00:11:30;;;;;;;;;;;27.50;41.30;;;;;;4995480;28;19925;-68
2022/07/29 00:13:56;;;;;;;;;;;27.50;41.60;;;;;;4997399;28;19917;-69
2022/07/29 00:16:21;;;;;;;;;;;27.50;41.50;;;;;;4997350;28;19913;-67
2022/07/29 00:18:47;;;;;;;;;;;27.40;41.40;;;;;;5005206;28;19932;-64
2022/07/29 00:21:13;;;;;;;;;;;27.50;41.60;;;;;;5004004;28;19968;-69
2022/07/29 00:23:38;;;;;;;;;;;27.40;41.50;;;;;;5003462;28;19932;-66
2022/07/29 00:26:04;;;;;;;;;;;27.40;41.60;;;;;;4996110;28;20130;-68
2022/07/29 00:28:29;;;;;;;;;;;27.40;41.60;;;;;;5004284;28;19972;-67
2022/07/29 00:30:55;;;;;;;;;;;27.40;41.70;;;;;;5001032;28;19929;-69
2022/07/29 00:33:21;;;;;;;;;;;27.30;41.70;;;;;;5000231;28;20116;-69
2022/07/29 00:35:47;;;;;;;;;;;27.40;41.90;;;;;;4995745;28;19921;-69
2022/07/29 00:38:14;;;;;;;;;;;27.40;41.80;;;;;;4998850;28;19967;-68
2022/07/29 00:40:40;;;;;;;;;;;27.30;41.80;;;;;;4997549;28;19917;-67
2022/07/29 00:43:05;;;;;;;;;;;27.30;41.90;;;;;;5003956;28;20584;-65
2022/07/29 00:45:31;;;;;;;;;;;27.30;41.90;;;;;;5001308;28;19913;-68
2022/07/29 00:47:56;;;;;;;;;;;27.30;42.00;;;;;;5008197;28;20019;-65
2022/07/29 00:50:22;;;;;;;;;;;27.30;42.00;;;;;;5000049;28;19919;-67
2022/07/29 00:52:48;;;;;;;;;;;27.30;42.10;;;;;;5003703;28;20035;-70
2022/07/29 00:55:14;;;;;;;;;;;27.30;42.10;;;;;;5007544;28;20499;-67
2022/07/29 00:57:40;;;;;;;;;;;27.30;42.10;;;;;;5001819;28;20405;-68
2022/07/29 01:00:08;;;;;;;;;;;27.30;42.20;;;;;;5002518;28;19918;-73
2022/07/29 01:02:33;;;;;;;;;;;27.20;42.20;;;;;;5002332;28;19994;-66
2022/07/29 01:04:59;;;;;;;;;;;27.20;42.20;;;;;;5004140;28;19913;-69
2022/07/29 01:07:26;;;;;;;;;;;27.20;42.30;;;;;;4996210;28;19940;-69
2022/07/29 01:09:54;;;;;;;;;;;27.20;42.30;;;;;;5001163;28;19918;-72
2022/07/29 01:12:24;;;;;;;;;;;27.20;42.40;;;;;;5002823;28;19917;-70
2022/07/29 01:14:50;;;;;;;;;;;27.20;42.40;;;;;;5001780;28;19992;-69
2022/07/29 01:17:31;;;;;;;;;;;27.10;42.40;;;;;;5002386;28;19917;-70
2022/07/29 01:20:03;;;;;;;;;;;27.10;42.40;;;;;;5010162;28;20629;-69
2022/07/29 01:22:49;;;;;;;;;;;27.10;42.40;;;;;;4998071;28;20135;-71
2022/07/29 01:25:14;;;;;;;;;;;27.10;42.50;;;;;;4978358;28;20786;-69
2022/07/29 01:28:03;;;;;;;;;;;27.10;42.50;;;;;;5001013;28;19960;-71
2022/07/29 01:30:30;;;;;;;;;;;27.10;42.60;;;;;;4999165;28;20016;-68
2022/07/29 01:33:01;;;;;;;;;;;27.10;42.60;;;;;;5014232;28;19949;-70
2022/07/29 01:35:38;;;;;;;;;;;27.10;42.60;;;;;;4999072;28;20373;-69
2022/07/29 01:38:09;;;;;;;;;;;27.10;42.70;;;;;;5001137;28;19913;-68
2022/07/29 01:40:44;;;;;;;;;;;27.10;42.60;;;;;;5009022;28;19967;-70
2022/07/29 01:43:11;;;;;;;;;;;27.10;42.70;;;;;;5007257;28;19924;-70
2022/07/29 01:45:38;;;;;;;;;;;27.10;42.70;;;;;;5001920;28;20417;-66
2022/07/29 01:48:12;;;;;;;;;;;27.10;42.70;;;;;;5006800;28;19932;-70
2022/07/29 01:50:47;;;;;;;;;;;27.10;42.80;;;;;;5006187;28;19921;-69
2022/07/29 01:53:14;;;;;;;;;;;27.10;42.80;;;;;;4999809;28;19925;-69
2022/07/29 01:55:42;;;;;;;;;;;27.10;42.80;;;;;;5004269;28;19917;-72
2022/07/29 01:58:08;;;;;;;;;;;27.10;42.80;;;;;;5003764;28;20356;-66
2022/07/29 02:00:34;;;;;;;;;;;27.00;43.00;;;;;;5015194;28;20403;-70
2022/07/29 02:03:05;;;;;;;;;;;27.00;42.80;;;;;;4999223;28;19935;-69
2022/07/29 02:05:32;;;;;;;;;;;27.00;42.90;;;;;;4997967;28;19928;-69
2022/07/29 02:07:58;;;;;;;;;;;27.00;42.80;;;;;;4998420;28;19922;-69
2022/07/29 02:10:28;;;;;;;;;;;27.00;42.90;;;;;;4998706;28;19924;-70
2022/07/29 02:12:54;;;;;;;;;;;27.00;43.00;;;;;;5001725;28;19916;-69
2022/07/29 02:15:21;;;;;;;;;;;27.00;43.00;;;;;;5001485;28;19975;-68
2022/07/29 02:17:50;;;;;;;;;;;27.00;43.00;;;;;;5000679;28;19937;-70
2022/07/29 02:20:15;;;;;;;;;;;27.00;43.00;;;;;;4997644;28;20393;-70
2022/07/29 02:22:43;;;;;;;;;;;27.00;43.00;;;;;;5005757;28;19960;-70
2022/07/29 02:25:09;;;;;;;;;;;27.00;43.00;;;;;;5012698;28;19925;-66
2022/07/29 02:27:37;;;;;;;;;;;27.00;43.10;;;;;;5006423;28;19922;-70
2022/07/29 02:30:03;;;;;;;;;;;27.00;43.10;;;;;;4999414;28;19914;-67
2022/07/29 02:32:30;;;;;;;;;;;27.00;43.10;;;;;;4999888;28;19936;-70
2022/07/29 02:34:56;;;;;;;;;;;27.00;43.10;;;;;;4999093;28;19924;-70
2022/07/29 02:37:23;;;;;;;;;;;27.00;43.10;;;;;;5006422;28;19949;-68
2022/07/29 02:39:51;;;;;;;;;;;27.00;43.20;;;;;;5004512;28;19985;-69
2022/07/29 02:42:18;;;;;;;;;;;27.00;43.30;;;;;;5006096;28;19924;-66
2022/07/29 02:44:44;;;;;;;;;;;26.90;43.20;;;;;;5001155;28;20019;-70
2022/07/29 02:47:20;;;;;;;;;;;26.90;43.20;;;;;;5006791;28;19910;-71
2022/07/29 02:49:54;;;;;;;;;;;26.90;43.20;;;;;;5001457;28;19917;-70
2022/07/29 02:52:28;;;;;;;;;;;26.90;43.20;;;;;;4995778;28;19928;-70
2022/07/29 02:55:00;;;;;;;;;;;26.90;43.30;;;;;;4998976;28;19999;-72
2022/07/29 02:57:33;;;;;;;;;;;26.90;43.30;;;;;;4998657;28;19925;-68
2022/07/29 03:00:04;;;;;;;;;;;26.90;43.30;;;;;;5007516;28;19921;-67
2022/07/29 03:02:33;;;;;;;;;;;26.90;43.40;;;;;;5006261;28;20189;-71
2022/07/29 03:04:59;;;;;;;;;;;26.90;43.40;;;;;;5000283;28;20000;-67
2022/07/29 03:07:24;;;;;;;;;;;26.90;43.40;;;;;;4998969;28;19924;-70
2022/07/29 03:09:50;;;;;;;;;;;26.80;43.40;;;;;;5004117;28;19917;-68
2022/07/29 03:12:16;;;;;;;;;;;26.80;43.50;;;;;;4997526;28;20103;-70
2022/07/29 03:14:43;;;;;;;;;;;26.80;43.50;;;;;;4999762;28;19928;-72
2022/07/29 03:17:12;;;;;;;;;;;26.80;43.50;;;;;;4996422;28;20467;-69
2022/07/29 03:19:38;;;;;;;;;;;26.80;43.50;;;;;;5005015;28;19924;-69
2022/07/29 03:22:04;;;;;;;;;;;26.80;43.50;;;;;;5002680;28;20393;-70
2022/07/29 03:24:31;;;;;;;;;;;26.80;43.60;;;;;;4996957;28;21010;-66
2022/07/29 03:26:57;;;;;;;;;;;26.80;43.50;;;;;;4998775;28;19921;-70
2022/07/29 03:29:23;;;;;;;;;;;26.80;43.50;;;;;;5006458;28;19922;-72
2022/07/29 03:31:49;;;;;;;;;;;26.80;43.60;;;;;;4995780;28;19929;-66
2022/07/29 03:34:14;;;;;;;;;;;26.80;43.60;;;;;;4999536;28;19927;-68
2022/07/29 03:36:40;;;;;;;;;;;26.80;43.60;;;;;;4994200;28;19956;-66
2022/07/29 03:39:08;;;;;;;;;;;26.80;43.70;;;;;;4995217;28;19917;-71
2022/07/29 03:41:35;;;;;;;;;;;26.80;43.70;;;;;;4996408;28;19960;-71
2022/07/29 03:44:01;;;;;;;;;;;26.80;46.00;;;;;;4997622;28;20382;-69
2022/07/29 03:46:28;;;;;;;;;;;26.80;47.10;;;;;;4996494;28;20177;-71
2022/07/29 03:48:58;;;;;;;;;;;26.80;47.90;;;;;;4999082;28;19921;-68
2022/07/29 03:51:24;;;;;;;;;;;26.80;49.20;;;;;;4996447;28;19927;-71
2022/07/29 03:53:49;;;;;;;;;;;26.70;49.20;;;;;;4997690;28;19922;-69
2022/07/29 03:56:16;;;;;;;;;;;26.70;49.40;;;;;;4994853;28;20499;-69
2022/07/29 03:58:42;;;;;;;;;;;26.70;50.70;;;;;;4998171;28;19940;-68
2022/07/29 04:01:07;;;;;;;;;;;26.50;50.10;;;;;;4996699;28;19922;-69
2022/07/29 04:03:34;;;;;;;;;;;26.50;50.50;;;;;;5004965;28;19953;-70
2022/07/29 04:06:05;;;;;;;;;;;26.50;50.40;;;;;;4998523;28;19921;-69
2022/07/29 04:08:31;;;;;;;;;;;26.40;50.40;;;;;;4996792;28;19924;-67
2022/07/29 04:10:57;;;;;;;;;;;26.40;50.80;;;;;;4998412;28;19922;-71
2022/07/29 04:13:22;;;;;;;;;;;26.30;51.40;;;;;;4998854;28;20031;-71
2022/07/29 04:15:48;;;;;;;;;;;26.20;51.10;;;;;;4998033;28;19921;-70
2022/07/29 04:18:13;;;;;;;;;;;26.20;51.30;;;;;;5003230;28;19972;-69
2022/07/29 04:20:45;;;;;;;;;;;26.20;51.40;;;;;;5001586;28;19971;-69
2022/07/29 04:23:10;;;;;;;;;;;26.10;51.50;;;;;;5000545;28;20267;-69
2022/07/29 04:25:36;;;;;;;;;;;26.10;51.40;;;;;;5001100;28;19928;-71
2022/07/29 04:28:02;;;;;;;;;;;26.10;51.80;;;;;;5001746;28;19925;-70
2022/07/29 04:30:28;;;;;;;;;;;26.10;52.00;;;;;;4997348;28;19921;-71
2022/07/29 04:32:54;;;;;;;;;;;26.10;52.00;;;;;;5004506;28;19921;-69
2022/07/29 04:35:20;;;;;;;;;;;26.00;52.00;;;;;;5000137;28;19963;-70
2022/07/29 04:37:45;;;;;;;;;;;25.90;52.60;;;;;;5002868;28;19929;-70
2022/07/29 04:40:11;;;;;;;;;;;25.90;52.80;;;;;;4999792;28;19953;-70
2022/07/29 04:42:37;;;;;;;;;;;25.80;53.50;;;;;;5003476;28;19917;-69
2022/07/29 04:45:03;;;;;;;;;;;25.70;53.50;;;;;;5001655;28;20334;-68
2022/07/29 04:47:28;;;;;;;;;;;25.70;53.70;;;;;;4999291;28;19913;-70
2022/07/29 04:49:55;;;;;;;;;;;25.70;53.20;;;;;;5002191;28;19917;-67
2022/07/29 04:52:20;;;;;;;;;;;25.70;53.40;;;;;;5000326;28;20686;-69
2022/07/29 04:54:45;;;;;;;;;;;25.70;53.40;;;;;;4998870;28;19980;-68
2022/07/29 04:57:11;;;;;;;;;;;25.70;53.50;;;;;;4999904;28;20312;-69
2022/07/29 04:59:36;;;;;;;;;;;25.70;53.30;;;;;;5004263;28;19920;-69
2022/07/29 05:02:02;;;;;;;;;;;25.70;53.70;;;;;;4994782;28;19929;-66
2022/07/29 05:04:27;;;;;;;;;;;25.70;53.60;;;;;;5009290;28;19925;-67
2022/07/29 05:06:53;;;;;;;;;;;25.70;53.60;;;;;;4998735;28;19921;-66
2022/07/29 05:09:18;;;;;;;;;;;25.70;54.10;;;;;;5006344;28;20605;-69
2022/07/29 05:11:44;;;;;;;;;;;25.70;54.00;;;;;;5000983;28;19921;-71
2022/07/29 05:14:12;;;;;;;;;;;25.60;54.10;;;;;;5008960;28;19941;-68
2022/07/29 05:16:39;;;;;;;;;;;25.70;54.10;;;;;;4996407;28;19913;-69
2022/07/29 05:19:05;;;;;;;;;;;25.60;53.80;;;;;;4999558;28;19956;-70
2022/07/29 05:21:31;;;;;;;;;;;25.70;53.80;;;;;;5000552;28;19957;-69
2022/07/29 05:23:56;;;;;;;;;;;25.60;54.00;;;;;;5001727;28;21134;-70
2022/07/29 05:26:25;;;;;;;;;;;25.60;54.50;;;;;;5007733;28;20047;-70
2022/07/29 05:28:50;;;;;;;;;;;25.60;54.80;;;;;;5003912;28;19917;-65
2022/07/29 05:31:22;;;;;;;;;;;25.60;54.20;;;;;;5000870;28;20415;-71
2022/07/29 05:33:47;;;;;;;;;;;25.60;54.50;;;;;;5003781;28;19932;-69
2022/07/29 05:36:13;;;;;;;;;;;25.60;54.40;;;;;;4998231;28;19984;-68
2022/07/29 05:38:38;;;;;;;;;;;25.60;54.70;;;;;;5007414;28;20008;-67
2022/07/29 05:41:04;;;;;;;;;;;25.60;55.20;;;;;;5006893;28;19917;-67
2022/07/29 05:43:30;;;;;;;;;;;25.50;55.30;;;;;;5010609;28;19953;-71
2022/07/29 05:45:56;;;;;;;;;;;25.50;55.00;;;;;;5000136;28;20412;-69
2022/07/29 05:48:21;;;;;;;;;;;25.50;54.90;;;;;;5008723;28;20461;-69
2022/07/29 05:50:46;;;;;;;;;;;25.50;54.70;;;;;;4999111;28;20350;-71
2022/07/29 05:53:12;;;;;;;;;;;25.50;55.00;;;;;;5000684;28;19925;-69
2022/07/29 05:55:37;;;;;;;;;;;25.50;55.40;;;;;;4998506;28;20503;-69
2022/07/29 05:58:03;;;;;;;;;;;25.40;55.70;;;;;;5002923;28;19996;-71
2022/07/29 06:00:29;;;;;;;;;;;25.40;55.90;;;;;;4999488;28;20000;-71
2022/07/29 06:02:56;;;;;;;;;;;25.40;55.80;;;;;;5001456;28;20424;-66
2022/07/29 06:05:22;;;;;;;;;;;25.30;56.30;;;;;;4999376;28;19914;-69
2022/07/29 06:07:47;;;;;;;;;;;25.20;56.50;;;;;;4999903;28;19921;-70
2022/07/29 06:10:13;;;;;;;;;;;25.20;56.30;;;;;;5000702;28;19917;-69
2022/07/29 06:12:38;;;;;;;;;;;25.10;57.30;;;;;;4999639;28;20004;-68
2022/07/29 06:15:04;;;;;;;;;;;25.10;56.60;;;;;;4999104;28;19947;-70
2022/07/29 06:17:29;;;;;;;;;;;25.20;56.10;;;;;;5000390;28;19924;-69
2022/07/29 06:19:55;;;;;;;;;;;25.20;57.00;;;;;;5001744;28;20352;-71
2022/07/29 06:22:23;;;;;;;;;;;25.10;57.00;;;;;;5009102;28;20232;-68
2022/07/29 06:24:49;;;;;;;;;;;25.10;56.70;;;;;;4998567;28;19975;-70
2022/07/29 06:27:14;;;;;;;;;;;25.10;56.90;;;;;;5003812;28;20130;-70
2022/07/29 06:29:40;;;;;;;;;;;25.00;56.70;;;;;;5003050;28;19925;-71
2022/07/29 06:32:06;;;;;;;;;;;25.10;56.70;;;;;;4999347;28;19929;-70
2022/07/29 06:34:31;;;;;;;;;;;25.10;57.40;;;;;;4997136;28;20377;-66
2022/07/29 06:36:59;;;;;;;;;;;25.10;56.80;;;;;;4999703;28;19921;-72
2022/07/29 06:39:25;;;;;;;;;;;25.10;56.60;;;;;;4999213;28;20441;-69
2022/07/29 06:42:06;;;;;;;;;;;25.20;56.30;;;;;;5005043;28;20056;-69
2022/07/29 06:44:33;;;;;;;;;;;25.20;55.50;;;;;;5002948;28;19925;-70
2022/07/29 06:46:59;;;;;;;;;;;25.30;55.10;;;;;;5012810;28;19913;-70
2022/07/29 06:49:26;;;;;;;;;;;25.30;54.80;;;;;;5004372;28;19978;-70
2022/07/29 06:51:52;;;;;;;;;;;25.40;54.90;;;;;;5009562;28;19953;-71
2022/07/29 06:54:17;;;;;;;;;;;25.40;54.50;;;;;;5004590;28;19926;-71
2022/07/29 06:56:43;;;;;;;;;;;25.40;54.20;;;;;;5002231;28;19913;-68
2022/07/29 06:59:09;;;;;;;;;;;25.40;54.00;;;;;;5003887;28;20008;-68
2022/07/29 07:01:36;;;;;;;;;;;25.50;53.90;;;;;;5006423;28;20429;-66
2022/07/29 07:04:02;;;;;;;;;;;25.60;53.60;;;;;;5007181;28;20350;-66
2022/07/29 07:06:27;;;;;;;;;;;25.60;53.40;;;;;;5006391;28;19964;-70
2022/07/29 07:08:53;;;;;;;;;;;25.60;53.20;;;;;;5004499;28;19924;-67
2022/07/29 07:11:18;;;;;;;;;;;25.70;53.10;;;;;;5005272;28;19925;-68
2022/07/29 07:13:44;;;;;;;;;;;25.70;52.90;;;;;;5008608;28;19913;-69
2022/07/29 07:16:09;;;;;;;;;;;25.70;52.70;;;;;;5005749;28;19983;-71
2022/07/29 07:18:35;;;;;;;;;;;25.80;52.60;;;;;;5005131;28;20005;-69
2022/07/29 07:21:00;;;;;;;;;;;25.80;52.40;;;;;;5005489;28;19928;-66
2022/07/29 07:23:26;;;;;;;;;;;25.90;52.40;;;;;;5005123;28;19983;-68
2022/07/29 07:25:54;;;;;;;;;;;25.90;52.20;;;;;;5005992;28;20515;-69
2022/07/29 07:28:20;;;;;;;;;;;25.90;52.00;;;;;;5014403;28;19971;-70
2022/07/29 07:30:45;;;;;;;;;;;26.00;51.90;;;;;;5009070;28;19933;-68
2022/07/29 07:33:11;;;;;;;;;;;26.00;51.80;;;;;;5002412;28;20012;-68
2022/07/29 07:35:36;;;;;;;;;;;26.00;51.70;;;;;;5004967;28;19917;-69
2022/07/29 07:38:02;;;;;;;;;;;26.10;51.60;;;;;;5005765;28;19949;-71
2022/07/29 07:40:28;;;;;;;;;;;26.10;51.50;;;;;;5004894;28;19933;-71
2022/07/29 07:42:53;;;;;;;;;;;26.20;51.40;;;;;;5010272;28;19917;-70
2022/07/29 07:45:19;;;;;;;;;;;26.20;51.30;;;;;;4998447;28;20047;-68
2022/07/29 07:47:44;;;;;;;;;;;26.20;51.30;;;;;;4998492;28;19921;-70
2022/07/29 07:50:11;;;;;;;;;;;26.20;51.70;;;;;;5004891;28;20134;-70
2022/07/29 07:52:45;;;;;;;;;;;26.20;51.10;;;;;;5006450;28;19917;-68
2022/07/29 07:55:11;;;;;;;;;;;26.20;50.90;;;;;;5002649;28;19918;-68
2022/07/29 07:57:37;;;;;;;;;;;26.30;50.80;;;;;;5004540;28;19935;-68
2022/07/29 08:00:03;;;;;;;;;;;26.30;50.70;;;;;;5004360;28;19976;-67
2022/07/29 08:02:28;;;;;;;;;;;26.30;50.60;;;;;;5002599;28;19922;-69
2022/07/29 08:04:54;;;;;;;;;;;26.40;50.60;;;;;;5000452;28;19925;-70
2022/07/29 08:07:19;;;;;;;;;;;26.40;50.60;;;;;;5000234;28;19913;-64
2022/07/29 08:09:45;;;;;;;;;;;26.40;50.50;;;;;;5001176;28;19921;-69
2022/07/29 08:12:11;;;;;;;;;;;26.40;50.40;;;;;;5000549;28;19925;-71
2022/07/29 08:14:36;;;;;;;;;;;26.40;50.40;;;;;;5004495;28;19917;-70
2022/07/29 08:17:02;;;;;;;;;;;26.50;50.40;;;;;;5000534;28;19918;-70
2022/07/29 08:19:27;;;;;;;;;;;26.50;50.30;;;;;;5002569;28;19919;-66
2022/07/29 08:21:53;;;;;;;;;;;26.50;50.20;;;;;;5001777;28;20453;-64
2022/07/29 08:27:03;;;;;;;;;;;26.60;50.10;;;;;;5001067;28;19924;-69
2022/07/29 08:29:28;;;;;;;;;;;26.60;50.00;;;;;;5006939;28;19918;-66
2022/07/29 08:31:54;;;;;;;;;;;26.60;50.00;;;;;;5000417;28;19925;-70
2022/07/29 08:34:19;;;;;;;;;;;26.70;50.00;;;;;;5000862;28;19917;-69
2022/07/29 08:36:45;;;;;;;;;;;26.70;50.00;;;;;;5007714;28;19928;-69
2022/07/29 08:39:13;;;;;;;;;;;26.70;49.90;;;;;;5006476;28;20410;-71
2022/07/29 08:41:39;;;;;;;;;;;26.70;49.80;;;;;;5002595;28;19925;-70
2022/07/29 08:44:04;;;;;;;;;;;26.70;49.70;;;;;;4999099;28;20201;-70
2022/07/29 08:46:30;;;;;;;;;;;26.80;49.70;;;;;;4997010;28;19932;-70
2022/07/29 08:48:55;;;;;;;;;;;26.80;50.20;;;;;;5008970;28;20453;-70
2022/07/29 08:51:22;;;;;;;;;;;26.80;49.60;;;;;;5002632;28;20059;-71
2022/07/29 08:53:49;;;;;;;;;;;26.80;49.60;;;;;;4999031;28;20300;-74
2022/07/29 08:56:20;;;;;;;;;;;26.80;49.40;;;;;;5002724;28;20427;-67
2022/07/29 08:58:47;;;;;;;;;;;26.80;49.50;;;;;;5002582;28;19949;-68
2022/07/29 09:01:23;;;;;;;;;;;26.90;49.50;;;;;;5003648;28;19950;-70
2022/07/29 09:03:49;;;;;;;;;;;26.90;49.50;;;;;;5000053;28;20944;-71
2022/07/29 09:06:16;;;;;;;;;;;26.90;49.40;;;;;;5012162;28;20004;-72
2022/07/29 09:08:42;;;;;;;;;;;26.90;49.50;;;;;;5004986;28;19967;-65
2022/07/29 09:11:08;;;;;;;;;;;26.90;49.40;;;;;;5012784;28;19940;-68
2022/07/29 09:13:33;;;;;;;;;;;27.00;49.40;;;;;;5008181;28;20308;-70
2022/07/29 09:15:59;;;;;;;;;;;27.00;49.40;;;;;;5001612;28;19921;-67
2022/07/29 09:18:35;;;;;;;;;;;27.00;49.40;;;;;;5005247;28;20173;-71
2022/07/29 09:24:00;;;;;;;;;;;27.00;49.30;;;;;;5005687;28;19948;-68
2022/07/29 09:26:30;;;;;;;;;;;27.00;49.20;;;;;;5006133;28;19921;-68
2022/07/29 09:28:56;;;;;;;;;;;27.10;49.20;;;;;;5004365;28;20008;-68
2022/07/29 09:31:35;;;;;;;;;;;27.00;49.10;;;;;;4998908;28;20026;-71
2022/07/29 09:34:01;;;;;;;;;;;27.00;49.10;;;;;;5003122;28;19972;-69
2022/07/29 09:36:26;;;;;;;;;;;27.10;49.10;;;;;;5015652;28;20023;-64
2022/07/29 09:38:59;;;;;;;;;;;27.10;49.50;;;;;;5007551;28;19937;-68
2022/07/29 09:41:25;;;;;;;;;;;27.10;49.00;;;;;;5007071;28;19932;-70
2022/07/29 09:43:55;;;;;;;;;;;27.20;49.00;;;;;;5011630;28;19920;-68
2022/07/29 09:46:20;;;;;;;;;;;27.10;48.90;;;;;;5001222;28;19940;-69
2022/07/29 09:49:05;;;;;;;;;;;27.20;48.90;;;;;;5000511;28;19917;-66
2022/07/29 09:51:31;;;;;;;;;;;27.20;48.80;;;;;;4995983;28;20337;-72
2022/07/29 09:53:56;;;;;;;;;;;27.20;48.80;;;;;;5009337;28;19924;-68
2022/07/29 09:56:39;;;;;;;;;;;27.20;48.90;;;;;;4995452;28;19917;-70
2022/07/29 09:59:08;;;;;;;;;;;27.20;49.30;;;;;;5005092;28;19925;-69
2022/07/29 10:01:34;;;;;;;;;;;27.20;49.10;;;;;;5004101;28;19921;-70
2022/07/29 10:04:00;;;;;;;;;;;27.20;48.90;;;;;;5004363;28;19975;-64
2022/07/29 10:06:25;;;;;;;;;;;27.30;48.90;;;;;;4997435;28;19996;-69
2022/07/29 10:08:52;;;;;;;;;;;27.30;48.80;;;;;;5003574;28;19913;-69
2022/07/29 10:11:18;;;;;;;;;;;27.30;48.80;;;;;;5002851;28;19922;-70
2022/07/29 10:13:44;;;;;;;;;;;27.30;48.70;;;;;;5003256;28;19924;-68
2022/07/29 10:16:10;;;;;;;;;;;27.40;48.70;;;;;;4998161;28;19917;-70
2022/07/29 10:18:38;;;;;;;;;;;27.40;48.70;;;;;;5010571;28;19980;-70
2022/07/29 10:21:03;;;;;;;;;;;27.40;48.90;;;;;;5000417;28;19933;-72
2022/07/29 10:23:30;;;;;;;;;;;27.30;49.10;;;;;;4998238;28;19922;-69
2022/07/29 10:25:55;;;;;;;;;;;27.30;49.10;;;;;;4999119;28;20319;-69
2022/07/29 10:28:21;;;;;;;;;;;27.30;49.40;;;;;;4999065;28;19921;-67
2022/07/29 10:30:48;;;;;;;;;;;27.40;49.50;;;;;;4995110;28;20119;-70
2022/07/29 10:33:14;;;;;;;;;;;27.40;49.30;;;;;;4998852;28;19963;-66
2022/07/29 10:35:57;;;;;;;;;;;27.50;49.20;;;;;;5000098;28;19917;-69
2022/07/29 10:38:30;;;;;;;;;;;27.50;49.10;;;;;;4997910;28;19917;-67
2022/07/29 10:41:27;;;;;;;;;;;27.50;48.90;;;;;;4994606;28;19925;-67
2022/07/29 10:44:13;;;;;;;;;;;27.50;48.60;;;;;;5000322;28;19955;-67
2022/07/29 10:46:41;;;;;;;;;;;27.50;48.50;;;;;;4997443;28;19917;-70
2022/07/29 10:49:17;;;;;;;;;;;27.50;48.50;;;;;;4996997;28;20043;-68
2022/07/29 10:52:09;;;;;;;;;;;27.50;48.50;;;;;;4998749;28;19924;-66
2022/07/29 10:54:51;;;;;;;;;;;27.60;48.50;;;;;;5002700;28;20386;-68
2022/07/29 10:57:30;;;;;;;;;;;27.60;48.50;;;;;;4997868;28;20090;-71
2022/07/29 11:00:05;;;;;;;;;;;27.60;48.40;;;;;;4999560;28;20446;-67
2022/07/29 11:02:40;;;;;;;;;;;27.60;48.40;;;;;;5005836;28;20485;-67
2022/07/29 11:05:09;;;;;;;;;;;27.60;48.40;;;;;;4999673;28;20072;-71
2022/07/29 11:07:36;;;;;;;;;;;27.60;48.30;;;;;;4997127;28;20400;-66
2022/07/29 11:10:17;;;;;;;;;;;27.60;48.30;;;;;;4997098;28;19968;-68
2022/07/29 11:12:42;;;;;;;;;;;27.60;48.30;;;;;;5000418;28;19921;-71
2022/07/29 11:15:17;;;;;;;;;;;27.60;48.20;;;;;;5000478;28;20534;-70
2022/07/29 11:17:54;;;;;;;;;;;27.60;48.20;;;;;;4995773;28;20477;-70
2022/07/29 11:20:38;;;;;;;;;;;27.60;48.20;;;;;;4995530;28;19952;-73
2022/07/29 11:23:21;;;;;;;;;;;27.60;48.20;;;;;;5002869;28;19921;-70
2022/07/29 11:26:07;;;;;;;;;;;27.60;48.20;;;;;;4998107;28;20297;-72
2022/07/29 11:28:34;;;;;;;;;;;27.60;48.30;;;;;;5003873;28;19975;-69
2022/07/29 11:31:00;;;;;;;;;;;27.60;48.10;;;;;;4997845;28;19925;-68
2022/07/29 11:33:29;;;;;;;;;;;27.60;48.20;;;;;;5001468;28;19921;-75
2022/07/29 11:36:07;;;;;;;;;;;27.60;48.00;;;;;;5002072;28;19917;-75
2022/07/29 11:38:32;;;;;;;;;;;27.70;48.00;;;;;;4995923;28;19999;-74
2022/07/29 11:41:16;;;;;;;;;;;27.70;48.00;;;;;;4995699;28;19925;-66
2022/07/29 11:43:49;;;;;;;;;;;27.70;47.90;;;;;;4993636;28;19921;-72
2022/07/29 11:46:15;;;;;;;;;;;27.70;47.90;;;;;;5003108;28;22241;-70
2022/07/29 11:48:42;;;;;;;;;;;27.70;47.80;;;;;;4997180;28;19917;-69
2022/07/29 11:51:11;;;;;;;;;;;27.70;47.70;;;;;;4994271;28;20010;-71
2022/07/29 11:53:37;;;;;;;;;;;27.70;47.70;;;;;;4994503;28;21247;-66
2022/07/29 11:56:07;;;;;;;;;;;27.80;47.90;;;;;;4996329;28;19980;-68
2022/07/29 11:58:32;;;;;;;;;;;27.70;47.80;;;;;;4996331;28;19921;-69
2022/07/29 12:00:58;;;;;;;;;;;27.80;47.90;;;;;;4992133;28;20297;-67
2022/07/29 12:03:28;;;;;;;;;;;27.80;47.90;;;;;;5006425;28;19928;-65
2022/07/29 12:05:54;;;;;;;;;;;27.80;48.00;;;;;;4998067;28;19974;-68
2022/07/29 12:08:25;;;;;;;;;;;27.80;48.00;;;;;;4995572;28;20350;-65
2022/07/29 12:10:51;;;;;;;;;;;27.70;48.00;;;;;;4996800;28;19971;-67
2022/07/29 12:13:18;;;;;;;;;;;27.80;48.00;;;;;;4996758;28;20008;-67
2022/07/29 12:15:54;;;;;;;;;;;27.80;48.00;;;;;;4996322;28;19917;-68
2022/07/29 12:18:20;;;;;;;;;;;27.70;48.00;;;;;;4992868;28;19964;-70
2022/07/29 12:20:46;;;;;;;;;;;27.70;48.10;;;;;;4993380;28;19983;-66
2022/07/29 12:23:12;;;;;;;;;;;27.70;48.10;;;;;;4994360;28;21635;-66
2022/07/29 12:25:39;;;;;;;;;;;27.70;48.10;;;;;;5000144;28;20004;-70
2022/07/29 12:28:06;;;;;;;;;;;27.70;48.30;;;;;;4997725;28;20397;-70
2022/07/29 12:30:34;;;;;;;;;;;27.70;48.50;;;;;;4994854;28;19944;-70
2022/07/29 12:33:00;;;;;;;;;;;27.70;48.60;;;;;;5000027;28;19925;-67
2022/07/29 12:35:29;;;;;;;;;;;27.70;48.60;;;;;;5002502;28;19933;-68
2022/07/29 12:37:54;;;;;;;;;;;27.70;48.60;;;;;;4994701;28;19917;-65
2022/07/29 12:40:20;;;;;;;;;;;27.70;48.60;;;;;;5005311;28;19924;-68
2022/07/29 12:43:05;;;;;;;;;;;27.70;48.50;;;;;;4999449;28;19921;-67
2022/07/29 12:45:31;;;;;;;;;;;27.70;48.50;;;;;;4998766;28;20035;-66
2022/07/29 12:47:56;;;;;;;;;;;27.70;48.50;;;;;;4999439;28;19921;-67
2022/07/29 12:50:22;;;;;;;;;;;27.70;48.50;;;;;;4998887;28;19918;-69
2022/07/29 12:52:48;;;;;;;;;;;27.60;48.50;;;;;;4998984;28;19921;-69
2022/07/29 12:55:14;;;;;;;;;;;27.60;48.40;;;;;;4996815;28;20313;-68
2022/07/29 12:57:46;;;;;;;;;;;27.60;48.50;;;;;;4999178;28;19917;-69
2022/07/29 13:00:13;;;;;;;;;;;27.60;48.60;;;;;;5007796;28;20055;-68
2022/07/29 13:02:41;;;;;;;;;;;27.60;48.60;;;;;;4995923;28;20437;-65
2022/07/29 13:05:08;;;;;;;;;;;27.60;48.60;;;;;;4994970;28;20738;-68
2022/07/29 13:07:36;;;;;;;;;;;27.50;48.60;;;;;;4997108;28;20754;-68
2022/07/29 13:10:17;;;;;;;;;;;27.50;48.70;;;;;;4998435;28;19917;-66
2022/07/29 13:13:02;;;;;;;;;;;27.50;48.70;;;;;;4998710;28;20043;-65
2022/07/29 13:15:27;;;;;;;;;;;27.60;48.90;;;;;;4997114;28;20386;-68
2022/07/29 13:17:53;;;;;;;;;;;27.50;48.80;;;;;;4999893;28;19928;-68
2022/07/29 13:20:24;;;;;;;;;;;27.50;48.80;;;;;;4989495;28;19918;-68
2022/07/29 13:22:50;;;;;;;;;;;27.50;49.00;;;;;;4997257;28;19927;-68
2022/07/29 13:25:26;;;;;;;;;;;27.50;48.90;;;;;;5001669;28;19922;-69
2022/07/29 13:27:54;;;;;;;;;;;27.50;49.00;;;;;;4997077;28;19925;-67
2022/07/29 13:30:19;;;;;;;;;;;27.50;49.00;;;;;;4988436;28;20266;-67
2022/07/29 13:32:46;;;;;;;;;;;27.50;49.00;;;;;;5007730;28;20458;-68
2022/07/29 13:35:12;;;;;;;;;;;27.50;49.00;;;;;;5004157;28;19918;-69
2022/07/29 13:37:40;;;;;;;;;;;27.40;49.00;;;;;;4993639;28;20392;-68
2022/07/29 13:40:12;;;;;;;;;;;27.40;49.00;;;;;;4995859;28;20163;-66
2022/07/29 13:42:37;;;;;;;;;;;27.40;48.90;;;;;;4994764;28;19917;-67
2022/07/29 13:45:04;;;;;;;;;;;27.40;48.90;;;;;;5003570;28;19921;-67
2022/07/29 13:47:29;;;;;;;;;;;27.40;49.00;;;;;;5001884;28;20921;-69
2022/07/29 13:49:55;;;;;;;;;;;27.40;49.00;;;;;;4995673;28;19926;-66
2022/07/29 13:52:21;;;;;;;;;;;27.40;49.00;;;;;;5001929;28;20672;-67
2022/07/29 13:54:46;;;;;;;;;;;27.40;49.00;;;;;;4995656;28;20528;-65
2022/07/29 13:57:12;;;;;;;;;;;27.40;49.00;;;;;;4996045;28;19917;-66
2022/07/29 13:59:39;;;;;;;;;;;27.30;48.90;;;;;;4995915;28;19921;-66
2022/07/29 14:02:05;;;;;;;;;;;27.30;48.90;;;;;;4996135;28;19933;-65
2022/07/29 14:04:31;;;;;;;;;;;27.30;48.90;;;;;;4992849;28;19924;-68
2022/07/29 14:06:56;;;;;;;;;;;27.30;48.90;;;;;;4991499;28;19921;-66
2022/07/29 14:09:22;;;;;;;;;;;27.30;48.90;;;;;;4995201;28;20541;-67
2022/07/29 14:11:49;;;;;;;;;;;27.40;48.80;;;;;;5005110;28;19956;-67
2022/07/29 14:14:14;;;;;;;;;;;27.30;48.70;;;;;;5006800;28;20478;-67
2022/07/29 14:16:40;;;;;;;;;;;27.30;48.70;;;;;;4999110;28;19960;-65
2022/07/29 14:19:06;;;;;;;;;;;27.40;48.70;;;;;;4996372;28;20036;-65
2022/07/29 14:21:32;;;;;;;;;;;27.30;48.60;;;;;;4996773;28;19924;-68
2022/07/29 14:23:57;;;;;;;;;;;27.30;48.60;;;;;;4995634;28;19931;-67
2022/07/29 14:26:23;;;;;;;;;;;27.30;48.70;;;;;;4995832;28;19917;-67